sensor_id;sensor_type;location;lat;lon;timestamp;P1;durP1;ratioP1;P2;durP2;ratioP2
26201;SDS011;13944;28.562;77.188;2023-03-15T00:00:44;90.67;;;52.63;;
26201;SDS011;13944;28.562;77.188;2023-03-15T00:03:11;95.27;;;54.97;;
26201;SDS011;13944;28.562;77.188;2023-03-15T00:05:44;96.47;;;58.37;;
26201;SDS011;13944;28.562;77.188;2023-03-15T00:08:12;103.70;;;59.87;;
26201;SDS011;13944;28.562;77.188;2023-03-15T00:10:42;98.80;;;60.37;;
26201;SDS011;13944;28.562;77.188;2023-03-15T00:13:10;107.07;;;60.67;;
26201;SDS011;13944;28.562;77.188;2023-03-15T00:15:43;94.70;;;59.67;;
26201;SDS011;13944;28.562;77.188;2023-03-15T00:18:10;104.27;;;62.87;;
26201;SDS011;13944;28.562;77.188;2023-03-15T00:20:37;113.03;;;63.73;;
26201;SDS011;13944;28.562;77.188;2023-03-15T00:23:04;100.47;;;61.60;;
26201;SDS011;13944;28.562;77.188;2023-03-15T00:25:31;107.63;;;62.77;;
26201;SDS011;13944;28.562;77.188;2023-03-15T00:27:58;111.40;;;63.57;;
26201;SDS011;13944;28.562;77.188;2023-03-15T00:30:25;111.73;;;63.10;;
26201;SDS011;13944;28.562;77.188;2023-03-15T00:32:52;108.23;;;62.13;;
26201;SDS011;13944;28.562;77.188;2023-03-15T00:35:20;102.40;;;61.07;;
26201;SDS011;13944;28.562;77.188;2023-03-15T00:37:49;102.17;;;61.47;;
26201;SDS011;13944;28.562;77.188;2023-03-15T00:40:16;99.90;;;61.57;;
26201;SDS011;13944;28.562;77.188;2023-03-15T00:42:43;96.67;;;60.40;;
26201;SDS011;13944;28.562;77.188;2023-03-15T00:45:15;107.70;;;60.73;;
26201;SDS011;13944;28.562;77.188;2023-03-15T00:47:42;92.07;;;58.67;;
26201;SDS011;13944;28.562;77.188;2023-03-15T00:50:09;94.87;;;58.47;;
26201;SDS011;13944;28.562;77.188;2023-03-15T00:52:37;91.67;;;56.90;;
26201;SDS011;13944;28.562;77.188;2023-03-15T00:55:04;105.67;;;59.83;;
26201;SDS011;13944;28.562;77.188;2023-03-15T00:57:32;103.90;;;60.90;;
26201;SDS011;13944;28.562;77.188;2023-03-15T00:59:59;115.83;;;61.87;;
26201;SDS011;13944;28.562;77.188;2023-03-15T01:02:33;113.93;;;70.18;;
26201;SDS011;13944;28.562;77.188;2023-03-15T01:05:02;109.72;;;66.35;;
26201;SDS011;13944;28.562;77.188;2023-03-15T01:07:30;112.55;;;66.57;;
26201;SDS011;13944;28.562;77.188;2023-03-15T01:10:01;115.30;;;65.23;;
26201;SDS011;13944;28.562;77.188;2023-03-15T01:12:28;114.17;;;63.73;;
26201;SDS011;13944;28.562;77.188;2023-03-15T01:14:57;110.47;;;63.17;;
26201;SDS011;13944;28.562;77.188;2023-03-15T01:17:24;115.80;;;62.93;;
26201;SDS011;13944;28.562;77.188;2023-03-15T01:19:51;113.37;;;62.70;;
26201;SDS011;13944;28.562;77.188;2023-03-15T01:22:18;118.20;;;62.75;;
26201;SDS011;13944;28.562;77.188;2023-03-15T01:24:45;119.67;;;64.40;;
26201;SDS011;13944;28.562;77.188;2023-03-15T01:27:13;121.47;;;63.93;;
26201;SDS011;13944;28.562;77.188;2023-03-15T01:29:40;112.88;;;62.20;;
26201;SDS011;13944;28.562;77.188;2023-03-15T01:32:07;111.00;;;64.10;;
26201;SDS011;13944;28.562;77.188;2023-03-15T01:34:34;105.43;;;64.90;;
26201;SDS011;13944;28.562;77.188;2023-03-15T01:37:01;113.07;;;65.53;;
26201;SDS011;13944;28.562;77.188;2023-03-15T01:39:29;111.70;;;63.13;;
26201;SDS011;13944;28.562;77.188;2023-03-15T01:41:56;106.57;;;63.27;;
26201;SDS011;13944;28.562;77.188;2023-03-15T01:44:23;124.57;;;66.87;;
26201;SDS011;13944;28.562;77.188;2023-03-15T01:46:50;123.07;;;68.73;;
26201;SDS011;13944;28.562;77.188;2023-03-15T01:51:52;128.43;;;71.13;;
26201;SDS011;13944;28.562;77.188;2023-03-15T01:54:24;140.33;;;72.20;;
26201;SDS011;13944;28.562;77.188;2023-03-15T01:56:54;115.25;;;71.00;;
26201;SDS011;13944;28.562;77.188;2023-03-15T01:59:26;116.15;;;70.80;;
26201;SDS011;13944;28.562;77.188;2023-03-15T02:01:56;129.50;;;68.50;;
26201;SDS011;13944;28.562;77.188;2023-03-15T02:04:24;121.35;;;69.00;;
26201;SDS011;13944;28.562;77.188;2023-03-15T02:06:55;122.32;;;71.00;;
26201;SDS011;13944;28.562;77.188;2023-03-15T02:09:25;112.87;;;67.80;;
26201;SDS011;13944;28.562;77.188;2023-03-15T02:11:54;123.75;;;71.45;;
26201;SDS011;13944;28.562;77.188;2023-03-15T02:14:22;116.95;;;69.50;;
26201;SDS011;13944;28.562;77.188;2023-03-15T02:16:50;118.10;;;67.25;;
26201;SDS011;13944;28.562;77.188;2023-03-15T02:19:24;129.30;;;72.00;;
26201;SDS011;13944;28.562;77.188;2023-03-15T02:21:56;135.95;;;74.65;;
26201;SDS011;13944;28.562;77.188;2023-03-15T02:24:30;160.73;;;74.60;;
26201;SDS011;13944;28.562;77.188;2023-03-15T02:27:01;149.75;;;77.97;;
26201;SDS011;13944;28.562;77.188;2023-03-15T02:29:29;123.75;;;75.40;;
26201;SDS011;13944;28.562;77.188;2023-03-15T02:31:57;127.13;;;75.75;;
26201;SDS011;13944;28.562;77.188;2023-03-15T02:34:24;114.90;;;72.68;;
26201;SDS011;13944;28.562;77.188;2023-03-15T02:36:51;119.28;;;72.90;;
26201;SDS011;13944;28.562;77.188;2023-03-15T02:39:20;124.25;;;76.35;;
26201;SDS011;13944;28.562;77.188;2023-03-15T02:41:57;127.75;;;75.88;;
26201;SDS011;13944;28.562;77.188;2023-03-15T02:46:54;115.35;;;75.28;;
26201;SDS011;13944;28.562;77.188;2023-03-15T02:49:22;129.68;;;83.53;;
26201;SDS011;13944;28.562;77.188;2023-03-15T02:51:51;127.85;;;83.63;;
26201;SDS011;13944;28.562;77.188;2023-03-15T02:54:18;132.32;;;81.03;;
26201;SDS011;13944;28.562;77.188;2023-03-15T02:56:46;127.50;;;78.03;;
26201;SDS011;13944;28.562;77.188;2023-03-15T02:59:13;125.82;;;76.40;;
26201;SDS011;13944;28.562;77.188;2023-03-15T03:01:40;121.15;;;75.60;;
26201;SDS011;13944;28.562;77.188;2023-03-15T03:04:10;120.50;;;72.60;;
26201;SDS011;13944;28.562;77.188;2023-03-15T03:06:37;113.68;;;74.78;;
26201;SDS011;13944;28.562;77.188;2023-03-15T03:09:04;119.63;;;73.65;;
26201;SDS011;13944;28.562;77.188;2023-03-15T03:11:31;114.00;;;72.88;;
26201;SDS011;13944;28.562;77.188;2023-03-15T03:13:58;109.72;;;68.30;;
26201;SDS011;13944;28.562;77.188;2023-03-15T03:16:25;105.00;;;68.18;;
26201;SDS011;13944;28.562;77.188;2023-03-15T03:18:52;110.93;;;69.20;;
26201;SDS011;13944;28.562;77.188;2023-03-15T03:21:19;134.13;;;73.22;;
26201;SDS011;13944;28.562;77.188;2023-03-15T03:23:46;119.68;;;71.53;;
26201;SDS011;13944;28.562;77.188;2023-03-15T03:26:14;115.60;;;69.70;;
26201;SDS011;13944;28.562;77.188;2023-03-15T03:28:42;101.97;;;68.47;;
26201;SDS011;13944;28.562;77.188;2023-03-15T03:31:20;111.15;;;68.65;;
26201;SDS011;13944;28.562;77.188;2023-03-15T03:33:48;99.63;;;65.50;;
26201;SDS011;13944;28.562;77.188;2023-03-15T03:36:15;100.20;;;64.65;;
26201;SDS011;13944;28.562;77.188;2023-03-15T03:38:43;98.40;;;65.43;;
26201;SDS011;13944;28.562;77.188;2023-03-15T03:41:10;92.30;;;63.60;;
26201;SDS011;13944;28.562;77.188;2023-03-15T03:43:38;106.55;;;65.68;;
26201;SDS011;13944;28.562;77.188;2023-03-15T03:46:05;95.70;;;62.00;;
26201;SDS011;13944;28.562;77.188;2023-03-15T03:48:32;102.75;;;61.83;;
26201;SDS011;13944;28.562;77.188;2023-03-15T03:50:59;107.50;;;61.97;;
26201;SDS011;13944;28.562;77.188;2023-03-15T03:53:26;106.25;;;60.92;;
26201;SDS011;13944;28.562;77.188;2023-03-15T03:55:53;94.15;;;61.72;;
26201;SDS011;13944;28.562;77.188;2023-03-15T03:58:21;91.65;;;58.80;;
26201;SDS011;13944;28.562;77.188;2023-03-15T04:00:49;92.00;;;55.92;;
26201;SDS011;13944;28.562;77.188;2023-03-15T04:03:18;81.60;;;51.78;;
26201;SDS011;13944;28.562;77.188;2023-03-15T04:05:54;76.78;;;50.40;;
26201;SDS011;13944;28.562;77.188;2023-03-15T04:08:22;80.05;;;47.85;;
26201;SDS011;13944;28.562;77.188;2023-03-15T04:10:54;80.60;;;46.97;;
26201;SDS011;13944;28.562;77.188;2023-03-15T04:13:21;87.60;;;44.35;;
26201;SDS011;13944;28.562;77.188;2023-03-15T04:15:49;83.32;;;46.75;;
26201;SDS011;13944;28.562;77.188;2023-03-15T04:18:17;85.35;;;46.60;;
26201;SDS011;13944;28.562;77.188;2023-03-15T04:20:46;72.32;;;46.20;;
26201;SDS011;13944;28.562;77.188;2023-03-15T04:23:13;80.07;;;47.15;;
26201;SDS011;13944;28.562;77.188;2023-03-15T04:25:40;71.43;;;45.63;;
26201;SDS011;13944;28.562;77.188;2023-03-15T04:28:08;67.28;;;43.00;;
26201;SDS011;13944;28.562;77.188;2023-03-15T04:30:36;68.78;;;39.97;;
26201;SDS011;13944;28.562;77.188;2023-03-15T04:33:23;62.67;;;38.42;;
26201;SDS011;13944;28.562;77.188;2023-03-15T04:35:50;62.58;;;38.22;;
26201;SDS011;13944;28.562;77.188;2023-03-15T04:38:18;61.80;;;38.08;;
26201;SDS011;13944;28.562;77.188;2023-03-15T04:40:51;55.50;;;34.38;;
26201;SDS011;13944;28.562;77.188;2023-03-15T04:43:21;56.05;;;36.60;;
26201;SDS011;13944;28.562;77.188;2023-03-15T04:45:48;62.88;;;39.92;;
26201;SDS011;13944;28.562;77.188;2023-03-15T04:48:16;52.15;;;33.10;;
26201;SDS011;13944;28.562;77.188;2023-03-15T04:50:43;52.33;;;31.75;;
26201;SDS011;13944;28.562;77.188;2023-03-15T04:53:10;50.10;;;31.83;;
26201;SDS011;13944;28.562;77.188;2023-03-15T04:55:37;42.97;;;31.90;;
26201;SDS011;13944;28.562;77.188;2023-03-15T04:58:04;45.50;;;31.90;;
26201;SDS011;13944;28.562;77.188;2023-03-15T05:00:31;56.70;;;33.90;;
26201;SDS011;13944;28.562;77.188;2023-03-15T05:02:59;51.55;;;31.67;;
26201;SDS011;13944;28.562;77.188;2023-03-15T05:05:26;46.67;;;30.27;;
26201;SDS011;13944;28.562;77.188;2023-03-15T05:07:54;40.50;;;28.65;;
26201;SDS011;13944;28.562;77.188;2023-03-15T05:10:21;43.17;;;26.73;;
26201;SDS011;13944;28.562;77.188;2023-03-15T05:12:48;41.38;;;26.48;;
26201;SDS011;13944;28.562;77.188;2023-03-15T05:15:15;46.50;;;26.52;;
26201;SDS011;13944;28.562;77.188;2023-03-15T05:17:42;50.53;;;34.33;;
26201;SDS011;13944;28.562;77.188;2023-03-15T05:20:11;51.72;;;30.35;;
26201;SDS011;13944;28.562;77.188;2023-03-15T05:22:39;42.88;;;26.77;;
26201;SDS011;13944;28.562;77.188;2023-03-15T05:25:07;43.00;;;26.35;;
26201;SDS011;13944;28.562;77.188;2023-03-15T05:27:35;50.45;;;26.08;;
26201;SDS011;13944;28.562;77.188;2023-03-15T05:30:03;47.10;;;27.73;;
26201;SDS011;13944;28.562;77.188;2023-03-15T05:32:30;46.97;;;28.60;;
26201;SDS011;13944;28.562;77.188;2023-03-15T05:35:02;45.08;;;26.90;;
26201;SDS011;13944;28.562;77.188;2023-03-15T05:37:30;36.83;;;25.05;;
26201;SDS011;13944;28.562;77.188;2023-03-15T05:39:57;43.42;;;26.40;;
26201;SDS011;13944;28.562;77.188;2023-03-15T05:42:25;49.83;;;26.75;;
26201;SDS011;13944;28.562;77.188;2023-03-15T05:44:53;40.35;;;25.45;;
26201;SDS011;13944;28.562;77.188;2023-03-15T05:47:21;44.00;;;26.33;;
26201;SDS011;13944;28.562;77.188;2023-03-15T05:49:49;44.20;;;27.63;;
26201;SDS011;13944;28.562;77.188;2023-03-15T05:52:16;46.60;;;28.25;;
26201;SDS011;13944;28.562;77.188;2023-03-15T05:54:44;39.15;;;26.58;;
26201;SDS011;13944;28.562;77.188;2023-03-15T05:57:11;47.00;;;26.38;;
26201;SDS011;13944;28.562;77.188;2023-03-15T05:59:38;53.00;;;29.95;;
26201;SDS011;13944;28.562;77.188;2023-03-15T06:02:05;49.17;;;29.77;;
26201;SDS011;13944;28.562;77.188;2023-03-15T06:04:32;45.67;;;28.83;;
26201;SDS011;13944;28.562;77.188;2023-03-15T06:07:00;51.67;;;29.85;;
26201;SDS011;13944;28.562;77.188;2023-03-15T06:09:27;43.88;;;27.70;;
26201;SDS011;13944;28.562;77.188;2023-03-15T06:11:55;44.88;;;27.77;;
26201;SDS011;13944;28.562;77.188;2023-03-15T06:14:24;45.88;;;30.58;;
26201;SDS011;13944;28.562;77.188;2023-03-15T06:16:51;44.92;;;27.98;;
26201;SDS011;13944;28.562;77.188;2023-03-15T06:19:18;46.22;;;29.42;;
26201;SDS011;13944;28.562;77.188;2023-03-15T06:21:46;45.97;;;29.20;;
26201;SDS011;13944;28.562;77.188;2023-03-15T06:24:13;39.75;;;27.92;;
26201;SDS011;13944;28.562;77.188;2023-03-15T06:26:40;43.85;;;27.30;;
26201;SDS011;13944;28.562;77.188;2023-03-15T06:29:07;48.88;;;25.67;;
26201;SDS011;13944;28.562;77.188;2023-03-15T06:31:35;38.22;;;25.88;;
26201;SDS011;13944;28.562;77.188;2023-03-15T06:34:02;40.38;;;26.90;;
26201;SDS011;13944;28.562;77.188;2023-03-15T06:36:29;43.20;;;27.45;;
26201;SDS011;13944;28.562;77.188;2023-03-15T06:38:56;40.75;;;26.23;;
26201;SDS011;13944;28.562;77.188;2023-03-15T06:41:23;46.55;;;28.42;;
26201;SDS011;13944;28.562;77.188;2023-03-15T06:43:51;40.15;;;28.38;;
26201;SDS011;13944;28.562;77.188;2023-03-15T06:46:18;39.20;;;27.75;;
26201;SDS011;13944;28.562;77.188;2023-03-15T06:48:45;45.20;;;28.05;;
26201;SDS011;13944;28.562;77.188;2023-03-15T06:51:12;42.55;;;28.25;;
26201;SDS011;13944;28.562;77.188;2023-03-15T06:53:39;49.42;;;28.63;;
26201;SDS011;13944;28.562;77.188;2023-03-15T06:56:06;47.67;;;26.85;;
26201;SDS011;13944;28.562;77.188;2023-03-15T06:58:34;42.38;;;27.17;;
26201;SDS011;13944;28.562;77.188;2023-03-15T07:01:01;44.83;;;26.83;;
26201;SDS011;13944;28.562;77.188;2023-03-15T07:03:28;41.67;;;27.30;;
26201;SDS011;13944;28.562;77.188;2023-03-15T07:05:55;43.38;;;28.35;;
26201;SDS011;13944;28.562;77.188;2023-03-15T07:08:23;43.47;;;27.70;;
26201;SDS011;13944;28.562;77.188;2023-03-15T07:10:50;37.25;;;25.27;;
26201;SDS011;13944;28.562;77.188;2023-03-15T07:13:18;37.97;;;27.17;;
26201;SDS011;13944;28.562;77.188;2023-03-15T07:15:45;45.88;;;27.45;;
26201;SDS011;13944;28.562;77.188;2023-03-15T07:18:12;43.13;;;27.25;;
26201;SDS011;13944;28.562;77.188;2023-03-15T07:20:39;41.85;;;26.20;;
26201;SDS011;13944;28.562;77.188;2023-03-15T07:23:06;34.35;;;23.40;;
26201;SDS011;13944;28.562;77.188;2023-03-15T07:25:33;37.00;;;25.13;;
26201;SDS011;13944;28.562;77.188;2023-03-15T07:28:00;34.30;;;24.08;;
26201;SDS011;13944;28.562;77.188;2023-03-15T07:30:27;38.53;;;23.30;;
26201;SDS011;13944;28.562;77.188;2023-03-15T07:32:54;35.88;;;23.40;;
26201;SDS011;13944;28.562;77.188;2023-03-15T07:35:21;32.73;;;22.10;;
26201;SDS011;13944;28.562;77.188;2023-03-15T07:37:48;38.92;;;23.30;;
26201;SDS011;13944;28.562;77.188;2023-03-15T07:40:15;40.33;;;23.95;;
26201;SDS011;13944;28.562;77.188;2023-03-15T07:42:43;32.70;;;21.98;;
26201;SDS011;13944;28.562;77.188;2023-03-15T07:45:10;40.63;;;22.88;;
26201;SDS011;13944;28.562;77.188;2023-03-15T07:47:37;42.00;;;24.08;;
26201;SDS011;13944;28.562;77.188;2023-03-15T07:50:04;32.87;;;23.43;;
26201;SDS011;13944;28.562;77.188;2023-03-15T07:52:32;38.28;;;23.50;;
26201;SDS011;13944;28.562;77.188;2023-03-15T07:54:59;33.58;;;22.77;;
26201;SDS011;13944;28.562;77.188;2023-03-15T07:57:26;36.33;;;23.00;;
26201;SDS011;13944;28.562;77.188;2023-03-15T07:59:53;40.80;;;24.05;;
26201;SDS011;13944;28.562;77.188;2023-03-15T08:02:24;37.47;;;23.60;;
26201;SDS011;13944;28.562;77.188;2023-03-15T08:04:51;38.58;;;24.90;;
26201;SDS011;13944;28.562;77.188;2023-03-15T08:07:18;42.05;;;25.30;;
26201;SDS011;13944;28.562;77.188;2023-03-15T08:09:46;38.58;;;25.15;;
26201;SDS011;13944;28.562;77.188;2023-03-15T08:12:13;40.80;;;26.38;;
26201;SDS011;13944;28.562;77.188;2023-03-15T08:14:40;36.88;;;25.30;;
26201;SDS011;13944;28.562;77.188;2023-03-15T08:17:07;45.28;;;25.00;;
26201;SDS011;13944;28.562;77.188;2023-03-15T08:19:37;39.17;;;24.65;;
26201;SDS011;13944;28.562;77.188;2023-03-15T08:22:05;35.88;;;23.73;;
26201;SDS011;13944;28.562;77.188;2023-03-15T08:24:32;39.95;;;23.88;;
26201;SDS011;13944;28.562;77.188;2023-03-15T08:26:59;37.75;;;24.67;;
26201;SDS011;13944;28.562;77.188;2023-03-15T08:29:26;39.72;;;25.85;;
26201;SDS011;13944;28.562;77.188;2023-03-15T08:31:53;35.10;;;25.45;;
26201;SDS011;13944;28.562;77.188;2023-03-15T08:34:21;42.30;;;26.95;;
26201;SDS011;13944;28.562;77.188;2023-03-15T08:36:48;40.85;;;27.40;;
26201;SDS011;13944;28.562;77.188;2023-03-15T08:39:15;39.30;;;25.77;;
26201;SDS011;13944;28.562;77.188;2023-03-15T08:41:43;38.85;;;23.88;;
26201;SDS011;13944;28.562;77.188;2023-03-15T08:44:11;39.97;;;22.58;;
26201;SDS011;13944;28.562;77.188;2023-03-15T08:46:39;38.47;;;23.50;;
26201;SDS011;13944;28.562;77.188;2023-03-15T08:49:06;37.80;;;24.33;;
26201;SDS011;13944;28.562;77.188;2023-03-15T08:51:33;36.80;;;24.55;;
26201;SDS011;13944;28.562;77.188;2023-03-15T08:54:01;38.10;;;23.55;;
26201;SDS011;13944;28.562;77.188;2023-03-15T08:56:32;35.10;;;22.93;;
26201;SDS011;13944;28.562;77.188;2023-03-15T08:58:59;31.77;;;22.67;;
26201;SDS011;13944;28.562;77.188;2023-03-15T09:01:26;36.63;;;21.60;;
26201;SDS011;13944;28.562;77.188;2023-03-15T09:03:54;45.13;;;22.63;;
26201;SDS011;13944;28.562;77.188;2023-03-15T09:06:21;30.48;;;19.35;;
26201;SDS011;13944;28.562;77.188;2023-03-15T09:08:48;32.30;;;18.38;;
26201;SDS011;13944;28.562;77.188;2023-03-15T09:11:18;27.75;;;17.30;;
26201;SDS011;13944;28.562;77.188;2023-03-15T09:13:45;29.50;;;18.85;;
26201;SDS011;13944;28.562;77.188;2023-03-15T09:16:13;28.63;;;17.50;;
26201;SDS011;13944;28.562;77.188;2023-03-15T09:18:40;26.75;;;17.60;;
26201;SDS011;13944;28.562;77.188;2023-03-15T09:21:10;29.70;;;18.50;;
26201;SDS011;13944;28.562;77.188;2023-03-15T09:23:37;30.70;;;18.55;;
26201;SDS011;13944;28.562;77.188;2023-03-15T09:26:04;35.58;;;20.15;;
26201;SDS011;13944;28.562;77.188;2023-03-15T09:28:31;33.97;;;20.00;;
26201;SDS011;13944;28.562;77.188;2023-03-15T09:30:58;30.67;;;20.23;;
26201;SDS011;13944;28.562;77.188;2023-03-15T09:33:25;30.75;;;19.75;;
26201;SDS011;13944;28.562;77.188;2023-03-15T09:35:52;34.85;;;21.33;;
26201;SDS011;13944;28.562;77.188;2023-03-15T09:38:19;35.65;;;20.50;;
26201;SDS011;13944;28.562;77.188;2023-03-15T09:40:50;38.05;;;21.42;;
26201;SDS011;13944;28.562;77.188;2023-03-15T09:43:30;33.40;;;21.80;;
26201;SDS011;13944;28.562;77.188;2023-03-15T09:51:27;35.80;;;22.98;;
26201;SDS011;13944;28.562;77.188;2023-03-15T09:54:00;37.92;;;22.23;;
26201;SDS011;13944;28.562;77.188;2023-03-15T09:59:20;33.63;;;19.60;;
26201;SDS011;13944;28.562;77.188;2023-03-15T10:01:50;28.88;;;19.25;;
26201;SDS011;13944;28.562;77.188;2023-03-15T10:04:26;32.55;;;18.00;;
26201;SDS011;13944;28.562;77.188;2023-03-15T10:06:55;30.37;;;19.20;;
26201;SDS011;13944;28.562;77.188;2023-03-15T10:09:24;32.70;;;18.48;;
26201;SDS011;13944;28.562;77.188;2023-03-15T10:17:10;32.42;;;19.85;;
26201;SDS011;13944;28.562;77.188;2023-03-15T10:19:47;30.30;;;18.60;;
26201;SDS011;13944;28.562;77.188;2023-03-15T10:22:19;29.45;;;17.98;;
26201;SDS011;13944;28.562;77.188;2023-03-15T10:24:49;25.90;;;17.48;;
26201;SDS011;13944;28.562;77.188;2023-03-15T10:27:21;26.83;;;18.15;;
26201;SDS011;13944;28.562;77.188;2023-03-15T10:29:51;27.58;;;17.65;;
26201;SDS011;13944;28.562;77.188;2023-03-15T10:32:20;31.02;;;18.30;;
26201;SDS011;13944;28.562;77.188;2023-03-15T10:34:48;27.20;;;18.15;;
26201;SDS011;13944;28.562;77.188;2023-03-15T10:37:20;30.02;;;19.17;;
26201;SDS011;13944;28.562;77.188;2023-03-15T10:39:49;33.60;;;19.33;;
26201;SDS011;13944;28.562;77.188;2023-03-15T10:42:26;29.95;;;18.42;;
26201;SDS011;13944;28.562;77.188;2023-03-15T10:44:54;30.85;;;19.83;;
26201;SDS011;13944;28.562;77.188;2023-03-15T10:47:21;33.38;;;20.00;;
26201;SDS011;13944;28.562;77.188;2023-03-15T10:49:54;27.83;;;18.90;;
26201;SDS011;13944;28.562;77.188;2023-03-15T10:52:26;31.53;;;20.57;;
26201;SDS011;13944;28.562;77.188;2023-03-15T10:54:53;34.53;;;20.88;;
26201;SDS011;13944;28.562;77.188;2023-03-15T10:57:20;31.27;;;19.60;;
26201;SDS011;13944;28.562;77.188;2023-03-15T10:59:57;30.73;;;19.83;;
26201;SDS011;13944;28.562;77.188;2023-03-15T11:02:30;36.67;;;21.55;;
26201;SDS011;13944;28.562;77.188;2023-03-15T11:05:13;35.93;;;21.40;;
26201;SDS011;13944;28.562;77.188;2023-03-15T11:08:01;36.45;;;21.02;;
26201;SDS011;13944;28.562;77.188;2023-03-15T11:10:32;28.27;;;18.50;;
26201;SDS011;13944;28.562;77.188;2023-03-15T11:13:10;37.90;;;18.02;;
26201;SDS011;13944;28.562;77.188;2023-03-15T11:15:39;29.75;;;16.85;;
26201;SDS011;13944;28.562;77.188;2023-03-15T11:18:16;25.73;;;16.90;;
26201;SDS011;13944;28.562;77.188;2023-03-15T11:20:44;27.23;;;16.10;;
26201;SDS011;13944;28.562;77.188;2023-03-15T11:23:19;28.80;;;15.90;;
26201;SDS011;13944;28.562;77.188;2023-03-15T11:25:46;33.35;;;16.83;;
26201;SDS011;13944;28.562;77.188;2023-03-15T11:28:17;37.30;;;17.70;;
26201;SDS011;13944;28.562;77.188;2023-03-15T11:30:45;40.90;;;17.58;;
26201;SDS011;13944;28.562;77.188;2023-03-15T11:36:14;30.67;;;18.20;;
26201;SDS011;13944;28.562;77.188;2023-03-15T11:38:42;32.65;;;18.25;;
26201;SDS011;13944;28.562;77.188;2023-03-15T11:41:55;33.53;;;18.63;;
26201;SDS011;13944;28.562;77.188;2023-03-15T11:46:28;34.80;;;19.70;;
26201;SDS011;13944;28.562;77.188;2023-03-15T11:49:09;34.33;;;19.52;;
26201;SDS011;13944;28.562;77.188;2023-03-15T11:51:38;34.38;;;18.77;;
26201;SDS011;13944;28.562;77.188;2023-03-15T11:54:11;30.58;;;17.75;;
26201;SDS011;13944;28.562;77.188;2023-03-15T11:56:46;30.85;;;19.05;;
26201;SDS011;13944;28.562;77.188;2023-03-15T11:59:17;34.70;;;19.63;;
26201;SDS011;13944;28.562;77.188;2023-03-15T12:01:54;36.40;;;20.05;;
26201;SDS011;13944;28.562;77.188;2023-03-15T12:07:03;38.10;;;21.13;;
26201;SDS011;13944;28.562;77.188;2023-03-15T12:12:02;43.88;;;21.75;;
26201;SDS011;13944;28.562;77.188;2023-03-15T12:14:30;40.53;;;21.95;;
26201;SDS011;13944;28.562;77.188;2023-03-15T12:19:43;42.42;;;21.83;;
26201;SDS011;13944;28.562;77.188;2023-03-15T12:22:14;37.67;;;21.85;;
26201;SDS011;13944;28.562;77.188;2023-03-15T12:24:43;46.30;;;22.83;;
26201;SDS011;13944;28.562;77.188;2023-03-15T12:27:19;48.75;;;22.80;;
26201;SDS011;13944;28.562;77.188;2023-03-15T12:29:46;54.88;;;23.23;;
26201;SDS011;13944;28.562;77.188;2023-03-15T12:32:18;52.58;;;22.90;;
26201;SDS011;13944;28.562;77.188;2023-03-15T12:34:58;48.13;;;22.83;;
26201;SDS011;13944;28.562;77.188;2023-03-15T12:37:43;57.53;;;25.05;;
26201;SDS011;13944;28.562;77.188;2023-03-15T12:53:08;77.00;;;34.88;;
26201;SDS011;13944;28.562;77.188;2023-03-15T12:55:39;75.03;;;33.58;;
26201;SDS011;13944;28.562;77.188;2023-03-15T12:58:08;86.45;;;35.00;;
26201;SDS011;13944;28.562;77.188;2023-03-15T13:00:36;79.35;;;34.30;;
26201;SDS011;13944;28.562;77.188;2023-03-15T13:03:06;78.20;;;32.83;;
26201;SDS011;13944;28.562;77.188;2023-03-15T13:05:56;84.38;;;34.22;;
26201;SDS011;13944;28.562;77.188;2023-03-15T13:08:24;84.57;;;36.30;;
26201;SDS011;13944;28.562;77.188;2023-03-15T13:13:47;71.65;;;32.60;;
26201;SDS011;13944;28.562;77.188;2023-03-15T13:21:33;93.13;;;47.08;;
26201;SDS011;13944;28.562;77.188;2023-03-15T13:24:00;92.57;;;44.75;;
26201;SDS011;13944;28.562;77.188;2023-03-15T13:29:14;87.97;;;44.42;;
26201;SDS011;13944;28.562;77.188;2023-03-15T13:31:42;82.80;;;42.58;;
26201;SDS011;13944;28.562;77.188;2023-03-15T13:34:19;87.20;;;43.97;;
26201;SDS011;13944;28.562;77.188;2023-03-15T13:36:49;76.20;;;41.58;;
26201;SDS011;13944;28.562;77.188;2023-03-15T13:41:47;105.63;;;47.05;;
26201;SDS011;13944;28.562;77.188;2023-03-15T13:44:19;96.07;;;44.67;;
26201;SDS011;13944;28.562;77.188;2023-03-15T13:46:50;105.03;;;45.38;;
26201;SDS011;13944;28.562;77.188;2023-03-15T13:49:18;82.53;;;44.55;;
26201;SDS011;13944;28.562;77.188;2023-03-15T13:51:46;92.45;;;44.60;;
26201;SDS011;13944;28.562;77.188;2023-03-15T13:54:17;93.00;;;45.25;;
26201;SDS011;13944;28.562;77.188;2023-03-15T13:59:13;108.30;;;47.13;;
26201;SDS011;13944;28.562;77.188;2023-03-15T14:01:40;99.05;;;45.88;;
26201;SDS011;13944;28.562;77.188;2023-03-15T14:04:09;98.75;;;46.10;;
26201;SDS011;13944;28.562;77.188;2023-03-15T14:06:38;95.03;;;45.45;;
26201;SDS011;13944;28.562;77.188;2023-03-15T14:09:07;92.85;;;47.17;;
26201;SDS011;13944;28.562;77.188;2023-03-15T14:11:38;95.70;;;47.65;;
26201;SDS011;13944;28.562;77.188;2023-03-15T14:14:14;119.80;;;52.08;;
26201;SDS011;13944;28.562;77.188;2023-03-15T14:16:45;119.00;;;50.20;;
26201;SDS011;13944;28.562;77.188;2023-03-15T14:19:25;113.20;;;51.78;;
26201;SDS011;13944;28.562;77.188;2023-03-15T14:21:54;122.43;;;50.53;;
26201;SDS011;13944;28.562;77.188;2023-03-15T14:24:26;100.78;;;49.17;;
26201;SDS011;13944;28.562;77.188;2023-03-15T14:26:58;119.97;;;50.95;;
26201;SDS011;13944;28.562;77.188;2023-03-15T14:29:29;105.93;;;52.10;;
26201;SDS011;13944;28.562;77.188;2023-03-15T14:32:01;115.57;;;53.13;;
26201;SDS011;13944;28.562;77.188;2023-03-15T14:34:35;111.00;;;53.17;;
26201;SDS011;13944;28.562;77.188;2023-03-15T14:37:06;115.32;;;52.88;;
26201;SDS011;13944;28.562;77.188;2023-03-15T14:42:01;122.00;;;55.55;;
26201;SDS011;13944;28.562;77.188;2023-03-15T14:44:28;101.20;;;52.80;;
26201;SDS011;13944;28.562;77.188;2023-03-15T14:46:55;113.07;;;53.58;;
26201;SDS011;13944;28.562;77.188;2023-03-15T14:49:26;109.82;;;53.05;;
26201;SDS011;13944;28.562;77.188;2023-03-15T14:54:24;108.40;;;51.92;;
26201;SDS011;13944;28.562;77.188;2023-03-15T14:56:51;94.40;;;51.17;;
26201;SDS011;13944;28.562;77.188;2023-03-15T14:59:18;94.70;;;51.33;;
26201;SDS011;13944;28.562;77.188;2023-03-15T15:01:47;103.22;;;54.20;;
26201;SDS011;13944;28.562;77.188;2023-03-15T15:04:15;117.93;;;56.40;;
26201;SDS011;13944;28.562;77.188;2023-03-15T15:06:42;110.90;;;55.88;;
26201;SDS011;13944;28.562;77.188;2023-03-15T15:09:16;112.18;;;55.75;;
26201;SDS011;13944;28.562;77.188;2023-03-15T15:11:45;102.45;;;54.70;;
26201;SDS011;13944;28.562;77.188;2023-03-15T15:14:12;108.43;;;55.22;;
26201;SDS011;13944;28.562;77.188;2023-03-15T15:16:40;111.13;;;59.17;;
26201;SDS011;13944;28.562;77.188;2023-03-15T15:19:07;146.30;;;58.13;;
26201;SDS011;13944;28.562;77.188;2023-03-15T15:21:34;137.27;;;60.40;;